sensor_id;sensor_type;location;lat;lon;timestamp;temperature;humidity
41262;DHT22;29629;52.532;13.352;2023-05-02T00:00:33;15.00;99.90
41262;DHT22;29629;52.532;13.352;2023-05-02T00:03:01;14.90;99.90
41262;DHT22;29629;52.532;13.352;2023-05-02T00:05:29;14.90;99.90
41262;DHT22;29629;52.532;13.352;2023-05-02T00:07:56;14.90;99.90
41262;DHT22;29629;52.532;13.352;2023-05-02T00:10:23;14.80;99.90
41262;DHT22;29629;52.532;13.352;2023-05-02T00:12:52;14.70;99.90
41262;DHT22;29629;52.532;13.352;2023-05-02T00:15:19;14.70;99.90
41262;DHT22;29629;52.532;13.352;2023-05-02T00:17:45;14.60;99.90
41262;DHT22;29629;52.532;13.352;2023-05-02T00:20:12;14.60;99.90
41262;DHT22;29629;52.532;13.352;2023-05-02T00:22:39;14.50;99.90
41262;DHT22;29629;52.532;13.352;2023-05-02T00:25:07;14.50;99.90
41262;DHT22;29629;52.532;13.352;2023-05-02T00:27:34;14.60;99.90
41262;DHT22;29629;52.532;13.352;2023-05-02T00:30:03;14.60;99.90
41262;DHT22;29629;52.532;13.352;2023-05-02T00:32:30;14.50;99.90
41262;DHT22;29629;52.532;13.352;2023-05-02T00:34:57;14.50;99.90
41262;DHT22;29629;52.532;13.352;2023-05-02T00:37:25;14.50;99.90
41262;DHT22;29629;52.532;13.352;2023-05-02T00:39:53;14.40;99.90
41262;DHT22;29629;52.532;13.352;2023-05-02T00:42:20;14.40;99.90
41262;DHT22;29629;52.532;13.352;2023-05-02T00:44:47;14.40;99.90
41262;DHT22;29629;52.532;13.352;2023-05-02T00:47:15;14.30;99.90
41262;DHT22;29629;52.532;13.352;2023-05-02T00:49:42;14.30;99.90
41262;DHT22;29629;52.532;13.352;2023-05-02T00:52:09;14.30;99.90
41262;DHT22;29629;52.532;13.352;2023-05-02T00:54:36;14.30;99.90
41262;DHT22;29629;52.532;13.352;2023-05-02T00:57:04;14.20;99.90
41262;DHT22;29629;52.532;13.352;2023-05-02T00:59:32;14.20;99.90
41262;DHT22;29629;52.532;13.352;2023-05-02T01:02:08;14.20;99.90
41262;DHT22;29629;52.532;13.352;2023-05-02T01:04:43;14.10;99.90
41262;DHT22;29629;52.532;13.352;2023-05-02T01:07:26;14.10;99.90
41262;DHT22;29629;52.532;13.352;2023-05-02T01:10:06;14.00;99.90
41262;DHT22;29629;52.532;13.352;2023-05-02T01:12:40;14.00;99.90
41262;DHT22;29629;52.532;13.352;2023-05-02T01:15:11;13.90;99.90
41262;DHT22;29629;52.532;13.352;2023-05-02T01:17:39;14.00;99.90
41262;DHT22;29629;52.532;13.352;2023-05-02T01:20:12;13.90;99.90
41262;DHT22;29629;52.532;13.352;2023-05-02T01:22:40;13.90;99.90
41262;DHT22;29629;52.532;13.352;2023-05-02T01:25:17;14.00;99.90
41262;DHT22;29629;52.532;13.352;2023-05-02T01:27:50;14.00;99.90
41262;DHT22;29629;52.532;13.352;2023-05-02T01:30:26;14.00;99.90
41262;DHT22;29629;52.532;13.352;2023-05-02T01:32:54;14.00;99.90
41262;DHT22;29629;52.532;13.352;2023-05-02T01:35:23;14.00;99.90
41262;DHT22;29629;52.532;13.352;2023-05-02T01:37:52;14.00;99.90
41262;DHT22;29629;52.532;13.352;2023-05-02T01:40:21;14.00;99.90
41262;DHT22;29629;52.532;13.352;2023-05-02T01:42:50;14.00;99.90
41262;DHT22;29629;52.532;13.352;2023-05-02T01:45:20;13.90;99.90
41262;DHT22;29629;52.532;13.352;2023-05-02T01:47:49;13.80;99.90
41262;DHT22;29629;52.532;13.352;2023-05-02T01:50:19;13.80;99.90
41262;DHT22;29629;52.532;13.352;2023-05-02T01:52:50;13.70;99.90
41262;DHT22;29629;52.532;13.352;2023-05-02T01:55:17;13.70;99.90
41262;DHT22;29629;52.532;13.352;2023-05-02T01:57:46;13.60;99.90
41262;DHT22;29629;52.532;13.352;2023-05-02T02:00:16;13.60;99.90
41262;DHT22;29629;52.532;13.352;2023-05-02T02:02:45;13.60;99.90
41262;DHT22;29629;52.532;13.352;2023-05-02T02:05:16;13.50;99.90
41262;DHT22;29629;52.532;13.352;2023-05-02T02:07:44;13.50;99.90
41262;DHT22;29629;52.532;13.352;2023-05-02T02:10:12;13.50;99.90
41262;DHT22;29629;52.532;13.352;2023-05-02T02:12:41;13.50;99.90
41262;DHT22;29629;52.532;13.352;2023-05-02T02:15:16;13.50;99.90
41262;DHT22;29629;52.532;13.352;2023-05-02T02:17:48;13.40;99.90
41262;DHT22;29629;52.532;13.352;2023-05-02T02:20:18;13.40;99.90
41262;DHT22;29629;52.532;13.352;2023-05-02T02:22:46;13.30;99.90
41262;DHT22;29629;52.532;13.352;2023-05-02T02:25:15;13.20;99.90
41262;DHT22;29629;52.532;13.352;2023-05-02T02:27:43;13.20;99.90
41262;DHT22;29629;52.532;13.352;2023-05-02T02:30:10;13.20;99.90
41262;DHT22;29629;52.532;13.352;2023-05-02T02:32:37;13.10;99.90
41262;DHT22;29629;52.532;13.352;2023-05-02T02:35:04;13.00;99.90
41262;DHT22;29629;52.532;13.352;2023-05-02T02:37:36;13.00;99.90
41262;DHT22;29629;52.532;13.352;2023-05-02T02:40:09;13.00;99.90
41262;DHT22;29629;52.532;13.352;2023-05-02T02:42:43;12.90;99.90
41262;DHT22;29629;52.532;13.352;2023-05-02T02:45:18;12.90;99.90
41262;DHT22;29629;52.532;13.352;2023-05-02T02:47:53;12.80;99.90
41262;DHT22;29629;52.532;13.352;2023-05-02T02:50:25;12.80;99.90
41262;DHT22;29629;52.532;13.352;2023-05-02T02:52:59;12.70;99.90
41262;DHT22;29629;52.532;13.352;2023-05-02T02:55:35;12.70;99.90
41262;DHT22;29629;52.532;13.352;2023-05-02T02:58:10;12.70;99.90
41262;DHT22;29629;52.532;13.352;2023-05-02T03:00:39;12.70;99.90
41262;DHT22;29629;52.532;13.352;2023-05-02T03:03:07;12.60;99.90
41262;DHT22;29629;52.532;13.352;2023-05-02T03:05:35;12.50;99.90
41262;DHT22;29629;52.532;13.352;2023-05-02T03:08:04;12.60;99.90
41262;DHT22;29629;52.532;13.352;2023-05-02T03:10:30;12.60;99.90
41262;DHT22;29629;52.532;13.352;2023-05-02T03:12:58;12.60;99.90
41262;DHT22;29629;52.532;13.352;2023-05-02T03:15:54;12.50;99.90
41262;DHT22;29629;52.532;13.352;2023-05-02T03:18:27;12.40;99.90
41262;DHT22;29629;52.532;13.352;2023-05-02T03:20:53;12.40;99.90
41262;DHT22;29629;52.532;13.352;2023-05-02T03:23:22;12.40;99.90
41262;DHT22;29629;52.532;13.352;2023-05-02T03:25:49;12.30;99.90
41262;DHT22;29629;52.532;13.352;2023-05-02T03:28:17;12.30;99.90
41262;DHT22;29629;52.532;13.352;2023-05-02T03:30:43;12.20;99.90
41262;DHT22;29629;52.532;13.352;2023-05-02T03:33:10;12.20;99.90
41262;DHT22;29629;52.532;13.352;2023-05-02T03:35:37;12.20;99.90
41262;DHT22;29629;52.532;13.352;2023-05-02T03:38:04;12.10;99.90
41262;DHT22;29629;52.532;13.352;2023-05-02T03:40:33;12.10;99.90
41262;DHT22;29629;52.532;13.352;2023-05-02T03:42:59;12.10;99.90
41262;DHT22;29629;52.532;13.352;2023-05-02T03:45:26;12.10;99.90
41262;DHT22;29629;52.532;13.352;2023-05-02T03:47:53;12.00;99.90
41262;DHT22;29629;52.532;13.352;2023-05-02T03:50:20;12.10;99.90
41262;DHT22;29629;52.532;13.352;2023-05-02T03:52:47;12.00;99.90
41262;DHT22;29629;52.532;13.352;2023-05-02T03:55:14;12.00;99.90
41262;DHT22;29629;52.532;13.352;2023-05-02T03:57:42;11.90;99.90
41262;DHT22;29629;52.532;13.352;2023-05-02T04:00:10;12.00;99.90
41262;DHT22;29629;52.532;13.352;2023-05-02T04:02:37;12.00;99.90
41262;DHT22;29629;52.532;13.352;2023-05-02T04:05:05;12.00;99.90
41262;DHT22;29629;52.532;13.352;2023-05-02T04:07:33;11.90;99.90
41262;DHT22;29629;52.532;13.352;2023-05-02T04:10:00;11.90;99.90
41262;DHT22;29629;52.532;13.352;2023-05-02T04:12:27;11.90;99.90
41262;DHT22;29629;52.532;13.352;2023-05-02T04:14:56;11.80;99.90
41262;DHT22;29629;52.532;13.352;2023-05-02T04:17:22;11.90;99.90
41262;DHT22;29629;52.532;13.352;2023-05-02T04:19:50;11.80;99.90
41262;DHT22;29629;52.532;13.352;2023-05-02T04:22:17;11.90;99.90
41262;DHT22;29629;52.532;13.352;2023-05-02T04:24:44;11.90;99.90
41262;DHT22;29629;52.532;13.352;2023-05-02T04:27:11;11.90;99.90
41262;DHT22;29629;52.532;13.352;2023-05-02T04:29:38;11.90;99.90
41262;DHT22;29629;52.532;13.352;2023-05-02T04:32:06;12.00;99.90
41262;DHT22;29629;52.532;13.352;2023-05-02T04:34:33;12.00;99.90
41262;DHT22;29629;52.532;13.352;2023-05-02T04:37:00;12.00;99.90
41262;DHT22;29629;52.532;13.352;2023-05-02T04:39:27;12.00;99.90
41262;DHT22;29629;52.532;13.352;2023-05-02T04:41:54;12.00;99.90
41262;DHT22;29629;52.532;13.352;2023-05-02T04:44:21;12.10;99.90
41262;DHT22;29629;52.532;13.352;2023-05-02T04:46:48;12.20;99.90
41262;DHT22;29629;52.532;13.352;2023-05-02T04:49:16;12.20;99.90
41262;DHT22;29629;52.532;13.352;2023-05-02T04:51:44;12.20;99.90
41262;DHT22;29629;52.532;13.352;2023-05-02T04:54:11;12.30;99.90
41262;DHT22;29629;52.532;13.352;2023-05-02T04:56:38;12.40;99.90
41262;DHT22;29629;52.532;13.352;2023-05-02T04:59:05;12.50;99.90
41262;DHT22;29629;52.532;13.352;2023-05-02T05:01:32;12.40;99.90
41262;DHT22;29629;52.532;13.352;2023-05-02T05:03:59;12.40;99.90
41262;DHT22;29629;52.532;13.352;2023-05-02T05:06:27;12.50;99.90
41262;DHT22;29629;52.532;13.352;2023-05-02T05:08:54;12.50;99.90
41262;DHT22;29629;52.532;13.352;2023-05-02T05:11:21;12.50;99.90
41262;DHT22;29629;52.532;13.352;2023-05-02T05:13:48;12.50;99.90
41262;DHT22;29629;52.532;13.352;2023-05-02T05:16:15;12.50;99.90
41262;DHT22;29629;52.532;13.352;2023-05-02T05:18:42;12.40;99.90
41262;DHT22;29629;52.532;13.352;2023-05-02T05:21:09;12.50;99.90
41262;DHT22;29629;52.532;13.352;2023-05-02T05:23:37;12.40;99.90
41262;DHT22;29629;52.532;13.352;2023-05-02T05:26:11;12.40;99.90
41262;DHT22;29629;52.532;13.352;2023-05-02T05:28:38;12.40;99.90
41262;DHT22;29629;52.532;13.352;2023-05-02T05:31:05;12.40;99.90
41262;DHT22;29629;52.532;13.352;2023-05-02T05:33:32;12.40;99.90
41262;DHT22;29629;52.532;13.352;2023-05-02T05:36:03;12.50;99.90
41262;DHT22;29629;52.532;13.352;2023-05-02T05:38:31;12.70;99.90
41262;DHT22;29629;52.532;13.352;2023-05-02T05:40:59;12.90;99.90
41262;DHT22;29629;52.532;13.352;2023-05-02T05:43:27;12.90;99.90
41262;DHT22;29629;52.532;13.352;2023-05-02T05:45:55;13.00;99.90
41262;DHT22;29629;52.532;13.352;2023-05-02T05:48:22;13.10;99.90
41262;DHT22;29629;52.532;13.352;2023-05-02T05:50:49;13.20;99.90
41262;DHT22;29629;52.532;13.352;2023-05-02T05:53:17;13.30;99.90
41262;DHT22;29629;52.532;13.352;2023-05-02T05:55:44;13.40;99.90
41262;DHT22;29629;52.532;13.352;2023-05-02T05:58:13;13.50;99.90
41262;DHT22;29629;52.532;13.352;2023-05-02T06:00:40;13.60;99.90
41262;DHT22;29629;52.532;13.352;2023-05-02T06:03:07;13.60;99.90
41262;DHT22;29629;52.532;13.352;2023-05-02T06:05:34;13.80;99.90
41262;DHT22;29629;52.532;13.352;2023-05-02T06:08:01;13.80;99.90
41262;DHT22;29629;52.532;13.352;2023-05-02T06:10:28;13.80;99.90
41262;DHT22;29629;52.532;13.352;2023-05-02T06:12:56;13.90;99.90
41262;DHT22;29629;52.532;13.352;2023-05-02T06:15:24;13.90;99.90
41262;DHT22;29629;52.532;13.352;2023-05-02T06:17:51;14.00;99.90
41262;DHT22;29629;52.532;13.352;2023-05-02T06:20:18;14.10;99.90
41262;DHT22;29629;52.532;13.352;2023-05-02T06:22:45;14.20;99.90
41262;DHT22;29629;52.532;13.352;2023-05-02T06:25:12;14.20;99.90
41262;DHT22;29629;52.532;13.352;2023-05-02T06:27:39;14.20;99.90
41262;DHT22;29629;52.532;13.352;2023-05-02T06:30:07;14.30;99.90
41262;DHT22;29629;52.532;13.352;2023-05-02T06:32:35;14.50;99.90
41262;DHT22;29629;52.532;13.352;2023-05-02T06:35:02;14.70;99.90
41262;DHT22;29629;52.532;13.352;2023-05-02T06:37:32;14.80;99.90
41262;DHT22;29629;52.532;13.352;2023-05-02T06:40:00;14.70;99.90
41262;DHT22;29629;52.532;13.352;2023-05-02T06:42:27;14.60;99.90
41262;DHT22;29629;52.532;13.352;2023-05-02T06:44:54;14.60;99.90
41262;DHT22;29629;52.532;13.352;2023-05-02T06:47:21;14.90;99.90
41262;DHT22;29629;52.532;13.352;2023-05-02T06:49:51;15.00;99.90
41262;DHT22;29629;52.532;13.352;2023-05-02T06:52:18;15.00;99.90
41262;DHT22;29629;52.532;13.352;2023-05-02T06:54:45;15.10;99.90
41262;DHT22;29629;52.532;13.352;2023-05-02T06:57:12;15.20;99.90
41262;DHT22;29629;52.532;13.352;2023-05-02T06:59:39;15.00;99.90
41262;DHT22;29629;52.532;13.352;2023-05-02T07:02:06;15.00;99.90
41262;DHT22;29629;52.532;13.352;2023-05-02T07:04:33;15.10;99.90
41262;DHT22;29629;52.532;13.352;2023-05-02T07:07:02;15.30;99.90
41262;DHT22;29629;52.532;13.352;2023-05-02T07:09:29;15.30;99.90
41262;DHT22;29629;52.532;13.352;2023-05-02T07:11:56;15.30;99.90
41262;DHT22;29629;52.532;13.352;2023-05-02T07:14:23;15.40;99.90
41262;DHT22;29629;52.532;13.352;2023-05-02T07:16:50;15.70;99.90
41262;DHT22;29629;52.532;13.352;2023-05-02T07:19:17;15.70;99.90
41262;DHT22;29629;52.532;13.352;2023-05-02T07:21:44;15.60;99.90
41262;DHT22;29629;52.532;13.352;2023-05-02T07:24:12;15.70;99.90
41262;DHT22;29629;52.532;13.352;2023-05-02T07:26:39;15.80;99.90
41262;DHT22;29629;52.532;13.352;2023-05-02T07:29:06;16.00;99.90
41262;DHT22;29629;52.532;13.352;2023-05-02T07:31:33;16.10;99.90
41262;DHT22;29629;52.532;13.352;2023-05-02T07:34:00;15.80;99.90
41262;DHT22;29629;52.532;13.352;2023-05-02T07:36:27;15.80;99.90
41262;DHT22;29629;52.532;13.352;2023-05-02T07:38:54;15.70;99.90
41262;DHT22;29629;52.532;13.352;2023-05-02T07:41:22;15.60;99.90
41262;DHT22;29629;52.532;13.352;2023-05-02T07:43:49;15.70;99.90
41262;DHT22;29629;52.532;13.352;2023-05-02T07:46:16;15.50;99.90
41262;DHT22;29629;52.532;13.352;2023-05-02T07:48:43;15.80;99.90
41262;DHT22;29629;52.532;13.352;2023-05-02T07:51:10;15.70;99.90
41262;DHT22;29629;52.532;13.352;2023-05-02T07:53:37;15.50;99.90
41262;DHT22;29629;52.532;13.352;2023-05-02T07:56:05;15.30;99.90
41262;DHT22;29629;52.532;13.352;2023-05-02T07:58:34;14.90;99.90
41262;DHT22;29629;52.532;13.352;2023-05-02T08:01:01;14.90;99.90
41262;DHT22;29629;52.532;13.352;2023-05-02T08:03:28;15.00;99.90
41262;DHT22;29629;52.532;13.352;2023-05-02T08:05:56;15.00;99.90
41262;DHT22;29629;52.532;13.352;2023-05-02T08:08:22;15.10;99.90
41262;DHT22;29629;52.532;13.352;2023-05-02T08:10:49;15.20;99.90
41262;DHT22;29629;52.532;13.352;2023-05-02T08:13:16;15.40;99.90
41262;DHT22;29629;52.532;13.352;2023-05-02T08:15:45;15.30;99.90
41262;DHT22;29629;52.532;13.352;2023-05-02T08:18:12;15.30;99.90
41262;DHT22;29629;52.532;13.352;2023-05-02T08:20:38;15.10;99.90
41262;DHT22;29629;52.532;13.352;2023-05-02T08:23:05;15.20;99.90
41262;DHT22;29629;52.532;13.352;2023-05-02T08:25:32;15.30;99.90
41262;DHT22;29629;52.532;13.352;2023-05-02T08:28:00;15.50;99.90
41262;DHT22;29629;52.532;13.352;2023-05-02T08:30:26;15.40;99.90
41262;DHT22;29629;52.532;13.352;2023-05-02T08:32:56;15.30;99.90
41262;DHT22;29629;52.532;13.352;2023-05-02T08:35:23;15.40;99.90
41262;DHT22;29629;52.532;13.352;2023-05-02T08:37:50;15.40;99.90
41262;DHT22;29629;52.532;13.352;2023-05-02T08:40:19;15.20;99.90
41262;DHT22;29629;52.532;13.352;2023-05-02T08:42:47;15.10;99.90
41262;DHT22;29629;52.532;13.352;2023-05-02T08:45:15;15.10;99.90
41262;DHT22;29629;52.532;13.352;2023-05-02T08:47:43;15.30;99.90
41262;DHT22;29629;52.532;13.352;2023-05-02T08:50:15;15.30;99.90
41262;DHT22;29629;52.532;13.352;2023-05-02T08:52:44;15.40;99.90
41262;DHT22;29629;52.532;13.352;2023-05-02T08:55:11;15.10;99.90
41262;DHT22;29629;52.532;13.352;2023-05-02T08:57:39;15.10;99.90
41262;DHT22;29629;52.532;13.352;2023-05-02T09:00:07;15.10;99.90
41262;DHT22;29629;52.532;13.352;2023-05-02T09:02:49;14.90;99.90
41262;DHT22;29629;52.532;13.352;2023-05-02T09:05:22;15.00;99.90
41262;DHT22;29629;52.532;13.352;2023-05-02T09:07:50;14.90;99.90
41262;DHT22;29629;52.532;13.352;2023-05-02T09:10:17;14.90;99.90
41262;DHT22;29629;52.532;13.352;2023-05-02T09:12:44;15.10;99.90
41262;DHT22;29629;52.532;13.352;2023-05-02T09:15:12;15.40;99.90
41262;DHT22;29629;52.532;13.352;2023-05-02T09:17:40;16.00;99.90
41262;DHT22;29629;52.532;13.352;2023-05-02T09:20:09;16.00;99.90
41262;DHT22;29629;52.532;13.352;2023-05-02T09:22:38;16.00;99.90
41262;DHT22;29629;52.532;13.352;2023-05-02T09:25:13;15.80;99.90
41262;DHT22;29629;52.532;13.352;2023-05-02T09:27:51;15.80;99.90
41262;DHT22;29629;52.532;13.352;2023-05-02T09:30:20;15.30;99.90
41262;DHT22;29629;52.532;13.352;2023-05-02T09:32:48;15.20;99.90
41262;DHT22;29629;52.532;13.352;2023-05-02T09:35:17;15.00;99.90
41262;DHT22;29629;52.532;13.352;2023-05-02T09:37:51;15.00;99.90
41262;DHT22;29629;52.532;13.352;2023-05-02T09:40:18;14.90;99.90
41262;DHT22;29629;52.532;13.352;2023-05-02T09:42:46;14.90;99.90
41262;DHT22;29629;52.532;13.352;2023-05-02T09:45:19;14.90;99.90
41262;DHT22;29629;52.532;13.352;2023-05-02T09:47:47;14.80;99.90
41262;DHT22;29629;52.532;13.352;2023-05-02T09:50:32;14.90;99.90
41262;DHT22;29629;52.532;13.352;2023-05-02T09:53:02;14.90;99.90
41262;DHT22;29629;52.532;13.352;2023-05-02T09:55:29;15.10;99.90
41262;DHT22;29629;52.532;13.352;2023-05-02T09:57:57;15.30;99.90
41262;DHT22;29629;52.532;13.352;2023-05-02T10:00:38;15.70;99.90
41262;DHT22;29629;52.532;13.352;2023-05-02T10:03:06;16.10;99.90
41262;DHT22;29629;52.532;13.352;2023-05-02T10:05:35;16.10;99.90
41262;DHT22;29629;52.532;13.352;2023-05-02T10:08:06;15.80;99.90
41262;DHT22;29629;52.532;13.352;2023-05-02T10:10:36;15.70;99.90
41262;DHT22;29629;52.532;13.352;2023-05-02T10:13:03;15.50;99.90
41262;DHT22;29629;52.532;13.352;2023-05-02T10:15:32;15.10;99.90
41262;DHT22;29629;52.532;13.352;2023-05-02T10:18:00;14.90;99.90
41262;DHT22;29629;52.532;13.352;2023-05-02T10:20:33;15.00;99.90
41262;DHT22;29629;52.532;13.352;2023-05-02T10:23:01;15.30;99.90
41262;DHT22;29629;52.532;13.352;2023-05-02T10:25:31;15.50;99.90
41262;DHT22;29629;52.532;13.352;2023-05-02T10:27:59;15.40;99.90
41262;DHT22;29629;52.532;13.352;2023-05-02T10:30:26;15.60;99.90
41262;DHT22;29629;52.532;13.352;2023-05-02T10:32:52;15.40;99.90
41262;DHT22;29629;52.532;13.352;2023-05-02T10:35:20;15.30;99.90
41262;DHT22;29629;52.532;13.352;2023-05-02T10:37:49;15.00;99.90
41262;DHT22;29629;52.532;13.352;2023-05-02T10:40:17;15.10;99.90
41262;DHT22;29629;52.532;13.352;2023-05-02T10:42:47;14.70;99.90
41262;DHT22;29629;52.532;13.352;2023-05-02T10:45:30;14.70;99.90
41262;DHT22;29629;52.532;13.352;2023-05-02T10:48:17;14.40;99.90
41262;DHT22;29629;52.532;13.352;2023-05-02T10:50:45;14.50;99.90
41262;DHT22;29629;52.532;13.352;2023-05-02T10:53:23;14.70;99.90
41262;DHT22;29629;52.532;13.352;2023-05-02T10:56:13;14.60;99.90
41262;DHT22;29629;52.532;13.352;2023-05-02T10:58:42;14.30;99.90
41262;DHT22;29629;52.532;13.352;2023-05-02T11:01:31;14.30;99.90
41262;DHT22;29629;52.532;13.352;2023-05-02T11:03:59;14.10;99.90
41262;DHT22;29629;52.532;13.352;2023-05-02T11:06:28;14.00;99.90
41262;DHT22;29629;52.532;13.352;2023-05-02T11:09:29;13.80;99.90
41262;DHT22;29629;52.532;13.352;2023-05-02T11:11:57;13.50;99.90
41262;DHT22;29629;52.532;13.352;2023-05-02T11:14:48;13.10;99.90
41262;DHT22;29629;52.532;13.352;2023-05-02T11:17:16;13.30;99.90
41262;DHT22;29629;52.532;13.352;2023-05-02T11:22:54;13.60;99.90
41262;DHT22;29629;52.532;13.352;2023-05-02T11:25:29;13.80;99.90
41262;DHT22;29629;52.532;13.352;2023-05-02T11:27:56;14.00;99.90
41262;DHT22;29629;52.532;13.352;2023-05-02T11:30:38;14.20;99.90
41262;DHT22;29629;52.532;13.352;2023-05-02T11:33:15;14.40;99.90
41262;DHT22;29629;52.532;13.352;2023-05-02T11:35:44;14.30;99.90
41262;DHT22;29629;52.532;13.352;2023-05-02T11:38:13;14.60;99.90
41262;DHT22;29629;52.532;13.352;2023-05-02T11:40:48;14.50;99.90
41262;DHT22;29629;52.532;13.352;2023-05-02T11:43:17;14.40;99.90
41262;DHT22;29629;52.532;13.352;2023-05-02T11:45:47;14.20;99.90
41262;DHT22;29629;52.532;13.352;2023-05-02T11:48:16;14.30;99.90
41262;DHT22;29629;52.532;13.352;2023-05-02T11:50:44;14.40;99.90
41262;DHT22;29629;52.532;13.352;2023-05-02T11:53:12;14.40;99.90
41262;DHT22;29629;52.532;13.352;2023-05-02T11:55:46;14.80;99.90
41262;DHT22;29629;52.532;13.352;2023-05-02T11:58:14;14.60;99.90
41262;DHT22;29629;52.532;13.352;2023-05-02T12:00:42;14.50;99.90
41262;DHT22;29629;52.532;13.352;2023-05-02T12:03:25;14.40;99.90
41262;DHT22;29629;52.532;13.352;2023-05-02T12:05:52;14.20;99.90
41262;DHT22;29629;52.532;13.352;2023-05-02T12:08:20;14.40;99.90
41262;DHT22;29629;52.532;13.352;2023-05-02T12:10:49;13.90;99.90
41262;DHT22;29629;52.532;13.352;2023-05-02T12:13:18;13.90;99.90
41262;DHT22;29629;52.532;13.352;2023-05-02T12:15:46;14.10;99.90
41262;DHT22;29629;52.532;13.352;2023-05-02T12:18:14;14.10;99.90
41262;DHT22;29629;52.532;13.352;2023-05-02T12:20:42;14.20;99.90
41262;DHT22;29629;52.532;13.352;2023-05-02T12:23:11;14.20;99.90
41262;DHT22;29629;52.532;13.352;2023-05-02T12:25:39;14.30;99.90
41262;DHT22;29629;52.532;13.352;2023-05-02T12:28:06;14.30;99.90
41262;DHT22;29629;52.532;13.352;2023-05-02T12:30:34;14.50;99.90
41262;DHT22;29629;52.532;13.352;2023-05-02T12:33:03;14.60;99.90
41262;DHT22;29629;52.532;13.352;2023-05-02T12:35:31;14.70;99.90
41262;DHT22;29629;52.532;13.352;2023-05-02T12:38:12;14.70;99.90
41262;DHT22;29629;52.532;13.352;2023-05-02T12:40:46;14.90;99.90
41262;DHT22;29629;52.532;13.352;2023-05-02T12:43:13;15.00;99.90
41262;DHT22;29629;52.532;13.352;2023-05-02T12:45:40;15.30;99.90
41262;DHT22;29629;52.532;13.352;2023-05-02T12:48:22;15.70;99.90
41262;DHT22;29629;52.532;13.352;2023-05-02T12:50:49;16.20;99.90
41262;DHT22;29629;52.532;13.352;2023-05-02T12:53:38;16.30;99.90
41262;DHT22;29629;52.532;13.352;2023-05-02T12:56:06;16.20;99.90
41262;DHT22;29629;52.532;13.352;2023-05-02T12:58:42;16.40;99.90
41262;DHT22;29629;52.532;13.352;2023-05-02T13:01:09;16.30;99.90
41262;DHT22;29629;52.532;13.352;2023-05-02T13:03:36;17.20;99.90
41262;DHT22;29629;52.532;13.352;2023-05-02T13:06:04;17.40;99.90
41262;DHT22;29629;52.532;13.352;2023-05-02T13:08:33;17.60;99.90
41262;DHT22;29629;52.532;13.352;2023-05-02T13:11:01;18.20;99.90
41262;DHT22;29629;52.532;13.352;2023-05-02T13:13:28;18.40;99.90
41262;DHT22;29629;52.532;13.352;2023-05-02T13:15:55;17.50;99.90
41262;DHT22;29629;52.532;13.352;2023-05-02T13:18:22;17.00;99.90
41262;DHT22;29629;52.532;13.352;2023-05-02T13:20:49;17.30;99.90
41262;DHT22;29629;52.532;13.352;2023-05-02T13:23:16;16.70;99.90
41262;DHT22;29629;52.532;13.352;2023-05-02T13:25:44;16.90;99.90
41262;DHT22;29629;52.532;13.352;2023-05-02T13:28:11;16.60;99.90
41262;DHT22;29629;52.532;13.352;2023-05-02T13:30:38;16.30;99.90
41262;DHT22;29629;52.532;13.352;2023-05-02T13:33:05;16.00;99.90
41262;DHT22;29629;52.532;13.352;2023-05-02T13:35:32;15.90;99.90
41262;DHT22;29629;52.532;13.352;2023-05-02T13:37:59;15.90;99.90
41262;DHT22;29629;52.532;13.352;2023-05-02T13:40:26;15.70;99.90
41262;DHT22;29629;52.532;13.352;2023-05-02T13:42:54;15.30;99.90
41262;DHT22;29629;52.532;13.352;2023-05-02T13:45:21;15.20;99.90
41262;DHT22;29629;52.532;13.352;2023-05-02T13:47:48;15.40;99.90
41262;DHT22;29629;52.532;13.352;2023-05-02T13:50:15;15.40;99.90
41262;DHT22;29629;52.532;13.352;2023-05-02T13:52:42;15.60;99.90
41262;DHT22;29629;52.532;13.352;2023-05-02T13:55:09;15.80;99.90
41262;DHT22;29629;52.532;13.352;2023-05-02T13:57:36;15.60;99.90
41262;DHT22;29629;52.532;13.352;2023-05-02T14:00:05;16.10;99.90
41262;DHT22;29629;52.532;13.352;2023-05-02T14:02:34;16.20;99.90
41262;DHT22;29629;52.532;13.352;2023-05-02T14:05:01;15.60;99.90
41262;DHT22;29629;52.532;13.352;2023-05-02T14:07:28;15.30;99.90
41262;DHT22;29629;52.532;13.352;2023-05-02T14:09:55;15.40;99.90
41262;DHT22;29629;52.532;13.352;2023-05-02T14:12:22;15.00;99.90
41262;DHT22;29629;52.532;13.352;2023-05-02T14:14:54;14.90;99.90
41262;DHT22;29629;52.532;13.352;2023-05-02T14:17:22;15.10;99.90
41262;DHT22;29629;52.532;13.352;2023-05-02T14:19:50;14.90;99.90
41262;DHT22;29629;52.532;13.352;2023-05-02T14:22:17;14.80;99.90
41262;DHT22;29629;52.532;13.352;2023-05-02T14:24:46;14.70;99.90
41262;DHT22;29629;52.532;13.352;2023-05-02T14:27:13;14.70;99.90
41262;DHT22;29629;52.532;13.352;2023-05-02T14:29:44;14.60;99.90
41262;DHT22;29629;52.532;13.352;2023-05-02T14:32:14;14.60;99.90
41262;DHT22;29629;52.532;13.352;2023-05-02T14:34:42;14.50;99.90
41262;DHT22;29629;52.532;13.352;2023-05-02T14:37:12;14.50;99.90
41262;DHT22;29629;52.532;13.352;2023-05-02T14:39:42;14.40;99.90
41262;DHT22;29629;52.532;13.352;2023-05-02T14:42:13;14.10;99.90
41262;DHT22;29629;52.532;13.352;2023-05-02T14:44:40;13.90;99.90
41262;DHT22;29629;52.532;13.352;2023-05-02T14:47:07;13.90;99.90
41262;DHT22;29629;52.532;13.352;2023-05-02T14:49:37;13.80;99.90
41262;DHT22;29629;52.532;13.352;2023-05-02T14:52:06;13.80;99.90
41262;DHT22;29629;52.532;13.352;2023-05-02T14:54:33;13.60;99.90
41262;DHT22;29629;52.532;13.352;2023-05-02T14:57:06;13.50;99.90
41262;DHT22;29629;52.532;13.352;2023-05-02T14:59:33;13.30;99.90
41262;DHT22;29629;52.532;13.352;2023-05-02T15:02:03;13.20;99.90
41262;DHT22;29629;52.532;13.352;2023-05-02T15:04:30;13.10;99.90
41262;DHT22;29629;52.532;13.352;2023-05-02T15:06:56;13.20;99.90
41262;DHT22;29629;52.532;13.352;2023-05-02T15:09:25;13.30;99.90
41262;DHT22;29629;52.532;13.352;2023-05-02T15:11:53;13.10;99.90
41262;DHT22;29629;52.532;13.352;2023-05-02T15:14:21;13.10;99.90
41262;DHT22;29629;52.532;13.352;2023-05-02T15:16:51;13.20;99.90
41262;DHT22;29629;52.532;13.352;2023-05-02T15:19:19;13.30;99.90
41262;DHT22;29629;52.532;13.352;2023-05-02T15:21:47;13.40;99.90
41262;DHT22;29629;52.532;13.352;2023-05-02T15:24:14;13.50;99.90
41262;DHT22;29629;52.532;13.352;2023-05-02T15:26:43;13.50;99.90
41262;DHT22;29629;52.532;13.352;2023-05-02T15:29:13;13.70;99.90